sensor_id;sensor_type;location;lat;lon;timestamp;P1;durP1;ratioP1;P2;durP2;ratioP2
40489;SDS011;26196;52.302;10.572;2023-05-07T00:00:08;4.53;;;3.90;;
40489;SDS011;26196;52.302;10.572;2023-05-07T00:04:08;5.32;;;3.70;;
40489;SDS011;26196;52.302;10.572;2023-05-07T00:08:09;4.65;;;3.70;;
40489;SDS011;26196;52.302;10.572;2023-05-07T00:12:09;5.90;;;4.65;;
40489;SDS011;26196;52.302;10.572;2023-05-07T00:16:10;4.10;;;3.33;;
40489;SDS011;26196;52.302;10.572;2023-05-07T00:20:10;5.13;;;3.53;;
40489;SDS011;26196;52.302;10.572;2023-05-07T00:24:11;4.72;;;3.50;;
40489;SDS011;26196;52.302;10.572;2023-05-07T00:28:11;5.67;;;3.63;;
40489;SDS011;26196;52.302;10.572;2023-05-07T00:32:11;4.70;;;3.53;;
40489;SDS011;26196;52.302;10.572;2023-05-07T00:36:12;5.07;;;3.33;;
40489;SDS011;26196;52.302;10.572;2023-05-07T00:40:12;5.88;;;3.80;;
40489;SDS011;26196;52.302;10.572;2023-05-07T00:44:13;3.65;;;3.17;;
40489;SDS011;26196;52.302;10.572;2023-05-07T00:48:14;4.72;;;3.58;;
40489;SDS011;26196;52.302;10.572;2023-05-07T00:52:15;3.80;;;2.78;;
40489;SDS011;26196;52.302;10.572;2023-05-07T00:56:17;3.03;;;2.42;;
40489;SDS011;26196;52.302;10.572;2023-05-07T01:00:17;5.10;;;2.65;;
40489;SDS011;26196;52.302;10.572;2023-05-07T01:04:18;3.55;;;2.30;;
40489;SDS011;26196;52.302;10.572;2023-05-07T01:08:18;3.37;;;2.53;;
40489;SDS011;26196;52.302;10.572;2023-05-07T01:12:20;2.67;;;2.10;;
40489;SDS011;26196;52.302;10.572;2023-05-07T01:16:21;2.50;;;2.15;;
40489;SDS011;26196;52.302;10.572;2023-05-07T01:20:22;2.72;;;1.95;;
40489;SDS011;26196;52.302;10.572;2023-05-07T01:24:22;5.95;;;2.45;;
40489;SDS011;26196;52.302;10.572;2023-05-07T01:28:23;2.22;;;1.83;;
40489;SDS011;26196;52.302;10.572;2023-05-07T01:32:38;3.42;;;2.20;;
40489;SDS011;26196;52.302;10.572;2023-05-07T01:36:43;2.30;;;1.60;;
40489;SDS011;26196;52.302;10.572;2023-05-07T01:40:44;2.42;;;2.10;;
40489;SDS011;26196;52.302;10.572;2023-05-07T01:44:45;2.55;;;1.92;;
40489;SDS011;26196;52.302;10.572;2023-05-07T01:48:46;2.88;;;2.15;;
40489;SDS011;26196;52.302;10.572;2023-05-07T01:52:47;2.53;;;1.65;;
40489;SDS011;26196;52.302;10.572;2023-05-07T01:56:50;2.63;;;2.00;;
40489;SDS011;26196;52.302;10.572;2023-05-07T02:00:51;2.53;;;1.90;;
40489;SDS011;26196;52.302;10.572;2023-05-07T02:04:51;2.47;;;1.63;;
40489;SDS011;26196;52.302;10.572;2023-05-07T02:08:52;2.77;;;2.20;;
40489;SDS011;26196;52.302;10.572;2023-05-07T02:12:52;1.95;;;1.60;;
40489;SDS011;26196;52.302;10.572;2023-05-07T02:16:52;2.07;;;1.30;;
40489;SDS011;26196;52.302;10.572;2023-05-07T02:20:53;3.33;;;2.40;;
40489;SDS011;26196;52.302;10.572;2023-05-07T02:24:53;2.72;;;1.80;;
40489;SDS011;26196;52.302;10.572;2023-05-07T02:28:53;2.33;;;1.70;;
40489;SDS011;26196;52.302;10.572;2023-05-07T02:32:54;1.88;;;1.65;;
40489;SDS011;26196;52.302;10.572;2023-05-07T02:36:54;1.98;;;1.80;;
40489;SDS011;26196;52.302;10.572;2023-05-07T02:40:55;2.28;;;1.55;;
40489;SDS011;26196;52.302;10.572;2023-05-07T02:44:55;2.73;;;2.07;;
40489;SDS011;26196;52.302;10.572;2023-05-07T02:48:56;3.23;;;2.23;;
40489;SDS011;26196;52.302;10.572;2023-05-07T02:52:56;2.00;;;1.30;;
40489;SDS011;26196;52.302;10.572;2023-05-07T02:56:57;3.50;;;2.03;;
40489;SDS011;26196;52.302;10.572;2023-05-07T03:00:57;2.50;;;1.75;;
40489;SDS011;26196;52.302;10.572;2023-05-07T03:04:58;2.28;;;1.30;;
40489;SDS011;26196;52.302;10.572;2023-05-07T03:08:59;1.90;;;1.70;;
40489;SDS011;26196;52.302;10.572;2023-05-07T03:13:00;2.20;;;1.70;;
40489;SDS011;26196;52.302;10.572;2023-05-07T03:17:00;1.80;;;1.42;;
40489;SDS011;26196;52.302;10.572;2023-05-07T03:21:01;2.28;;;1.73;;
40489;SDS011;26196;52.302;10.572;2023-05-07T03:25:01;2.60;;;1.83;;
40489;SDS011;26196;52.302;10.572;2023-05-07T03:29:02;2.58;;;1.70;;
40489;SDS011;26196;52.302;10.572;2023-05-07T03:33:02;2.87;;;2.37;;
40489;SDS011;26196;52.302;10.572;2023-05-07T03:37:02;2.80;;;2.45;;
40489;SDS011;26196;52.302;10.572;2023-05-07T03:41:03;2.80;;;2.00;;
40489;SDS011;26196;52.302;10.572;2023-05-07T03:45:03;2.45;;;1.85;;
40489;SDS011;26196;52.302;10.572;2023-05-07T03:49:04;3.10;;;2.08;;
40489;SDS011;26196;52.302;10.572;2023-05-07T03:53:04;2.05;;;1.60;;
40489;SDS011;26196;52.302;10.572;2023-05-07T03:57:04;2.60;;;1.87;;
40489;SDS011;26196;52.302;10.572;2023-05-07T04:01:05;2.60;;;1.67;;
40489;SDS011;26196;52.302;10.572;2023-05-07T04:05:05;1.67;;;1.58;;
40489;SDS011;26196;52.302;10.572;2023-05-07T04:09:06;2.53;;;2.00;;
40489;SDS011;26196;52.302;10.572;2023-05-07T04:13:06;2.55;;;1.92;;
40489;SDS011;26196;52.302;10.572;2023-05-07T04:17:07;1.87;;;1.73;;
40489;SDS011;26196;52.302;10.572;2023-05-07T04:21:16;2.33;;;2.03;;
40489;SDS011;26196;52.302;10.572;2023-05-07T04:25:17;2.17;;;1.67;;
40489;SDS011;26196;52.302;10.572;2023-05-07T04:29:18;2.90;;;2.00;;
40489;SDS011;26196;52.302;10.572;2023-05-07T04:33:18;2.00;;;1.70;;
40489;SDS011;26196;52.302;10.572;2023-05-07T04:37:18;2.95;;;1.90;;
40489;SDS011;26196;52.302;10.572;2023-05-07T04:41:19;2.97;;;2.55;;
40489;SDS011;26196;52.302;10.572;2023-05-07T04:45:19;2.13;;;1.93;;
40489;SDS011;26196;52.302;10.572;2023-05-07T04:49:20;2.28;;;1.95;;
40489;SDS011;26196;52.302;10.572;2023-05-07T04:53:20;2.75;;;2.20;;
40489;SDS011;26196;52.302;10.572;2023-05-07T04:57:21;1.98;;;1.77;;
40489;SDS011;26196;52.302;10.572;2023-05-07T05:01:21;2.67;;;2.03;;
40489;SDS011;26196;52.302;10.572;2023-05-07T05:05:22;2.37;;;2.00;;
40489;SDS011;26196;52.302;10.572;2023-05-07T05:09:22;3.25;;;1.77;;
40489;SDS011;26196;52.302;10.572;2023-05-07T05:13:23;2.80;;;1.83;;
40489;SDS011;26196;52.302;10.572;2023-05-07T05:17:23;1.90;;;1.70;;
40489;SDS011;26196;52.302;10.572;2023-05-07T05:21:23;2.22;;;1.80;;
40489;SDS011;26196;52.302;10.572;2023-05-07T05:25:24;2.22;;;1.52;;
40489;SDS011;26196;52.302;10.572;2023-05-07T05:29:24;1.92;;;1.75;;
40489;SDS011;26196;52.302;10.572;2023-05-07T05:33:24;2.03;;;1.40;;
40489;SDS011;26196;52.302;10.572;2023-05-07T05:37:25;2.30;;;1.80;;
40489;SDS011;26196;52.302;10.572;2023-05-07T05:41:25;2.28;;;1.67;;
40489;SDS011;26196;52.302;10.572;2023-05-07T05:45:25;2.50;;;2.28;;
40489;SDS011;26196;52.302;10.572;2023-05-07T05:49:26;2.40;;;2.05;;
40489;SDS011;26196;52.302;10.572;2023-05-07T05:53:26;3.07;;;1.97;;
40489;SDS011;26196;52.302;10.572;2023-05-07T05:57:26;2.80;;;2.22;;
40489;SDS011;26196;52.302;10.572;2023-05-07T06:01:27;2.70;;;2.10;;
40489;SDS011;26196;52.302;10.572;2023-05-07T06:05:27;2.75;;;2.30;;
40489;SDS011;26196;52.302;10.572;2023-05-07T06:09:28;2.38;;;2.17;;
40489;SDS011;26196;52.302;10.572;2023-05-07T06:13:28;2.77;;;2.30;;
40489;SDS011;26196;52.302;10.572;2023-05-07T06:17:28;2.67;;;2.13;;
40489;SDS011;26196;52.302;10.572;2023-05-07T06:21:29;2.17;;;1.97;;
40489;SDS011;26196;52.302;10.572;2023-05-07T06:25:30;2.63;;;2.10;;
40489;SDS011;26196;52.302;10.572;2023-05-07T06:29:30;3.13;;;2.60;;
40489;SDS011;26196;52.302;10.572;2023-05-07T06:33:32;2.40;;;1.95;;
40489;SDS011;26196;52.302;10.572;2023-05-07T06:37:33;2.77;;;2.13;;
40489;SDS011;26196;52.302;10.572;2023-05-07T06:41:33;2.88;;;2.10;;
40489;SDS011;26196;52.302;10.572;2023-05-07T06:45:35;4.13;;;2.25;;
40489;SDS011;26196;52.302;10.572;2023-05-07T06:49:35;2.97;;;2.15;;
40489;SDS011;26196;52.302;10.572;2023-05-07T06:53:36;2.03;;;1.80;;
40489;SDS011;26196;52.302;10.572;2023-05-07T06:57:36;3.33;;;2.33;;
40489;SDS011;26196;52.302;10.572;2023-05-07T07:01:36;3.22;;;2.42;;
40489;SDS011;26196;52.302;10.572;2023-05-07T07:05:37;1.77;;;1.52;;
40489;SDS011;26196;52.302;10.572;2023-05-07T07:09:37;4.43;;;2.10;;
40489;SDS011;26196;52.302;10.572;2023-05-07T07:13:38;2.72;;;2.33;;
40489;SDS011;26196;52.302;10.572;2023-05-07T07:17:38;2.42;;;2.17;;
40489;SDS011;26196;52.302;10.572;2023-05-07T07:21:38;3.35;;;2.65;;
40489;SDS011;26196;52.302;10.572;2023-05-07T07:25:39;4.03;;;2.10;;
40489;SDS011;26196;52.302;10.572;2023-05-07T07:29:39;2.83;;;2.08;;
40489;SDS011;26196;52.302;10.572;2023-05-07T07:33:39;3.47;;;1.90;;
40489;SDS011;26196;52.302;10.572;2023-05-07T07:37:40;3.72;;;2.45;;
40489;SDS011;26196;52.302;10.572;2023-05-07T07:41:40;3.13;;;2.27;;
40489;SDS011;26196;52.302;10.572;2023-05-07T07:45:41;2.55;;;1.77;;
40489;SDS011;26196;52.302;10.572;2023-05-07T07:49:41;1.75;;;1.42;;
40489;SDS011;26196;52.302;10.572;2023-05-07T07:53:42;2.78;;;1.63;;
40489;SDS011;26196;52.302;10.572;2023-05-07T07:57:43;1.73;;;1.27;;
40489;SDS011;26196;52.302;10.572;2023-05-07T08:01:44;2.28;;;1.63;;
40489;SDS011;26196;52.302;10.572;2023-05-07T08:05:44;2.80;;;1.58;;
40489;SDS011;26196;52.302;10.572;2023-05-07T08:09:45;2.70;;;2.30;;
40489;SDS011;26196;52.302;10.572;2023-05-07T08:13:45;2.30;;;1.92;;
40489;SDS011;26196;52.302;10.572;2023-05-07T08:17:46;3.22;;;2.47;;
40489;SDS011;26196;52.302;10.572;2023-05-07T08:21:46;2.42;;;1.70;;
40489;SDS011;26196;52.302;10.572;2023-05-07T08:25:48;3.97;;;2.08;;
40489;SDS011;26196;52.302;10.572;2023-05-07T08:29:49;2.67;;;2.10;;
40489;SDS011;26196;52.302;10.572;2023-05-07T08:33:49;3.00;;;2.53;;
40489;SDS011;26196;52.302;10.572;2023-05-07T08:37:50;3.22;;;1.98;;
40489;SDS011;26196;52.302;10.572;2023-05-07T08:41:50;3.17;;;2.30;;
40489;SDS011;26196;52.302;10.572;2023-05-07T08:45:56;2.78;;;2.20;;
40489;SDS011;26196;52.302;10.572;2023-05-07T08:50:02;2.80;;;2.50;;
40489;SDS011;26196;52.302;10.572;2023-05-07T08:54:02;3.42;;;2.40;;
40489;SDS011;26196;52.302;10.572;2023-05-07T08:58:03;2.53;;;2.33;;
40489;SDS011;26196;52.302;10.572;2023-05-07T09:02:04;2.80;;;2.35;;
40489;SDS011;26196;52.302;10.572;2023-05-07T09:06:09;2.13;;;1.60;;
40489;SDS011;26196;52.302;10.572;2023-05-07T09:10:10;2.53;;;1.85;;
40489;SDS011;26196;52.302;10.572;2023-05-07T09:14:10;8.80;;;3.67;;
40489;SDS011;26196;52.302;10.572;2023-05-07T09:18:11;3.83;;;2.93;;
40489;SDS011;26196;52.302;10.572;2023-05-07T09:22:12;2.40;;;1.92;;
40489;SDS011;26196;52.302;10.572;2023-05-07T09:26:13;3.65;;;2.38;;
40489;SDS011;26196;52.302;10.572;2023-05-07T09:30:14;2.35;;;1.92;;
40489;SDS011;26196;52.302;10.572;2023-05-07T09:34:14;1.88;;;1.50;;
40489;SDS011;26196;52.302;10.572;2023-05-07T09:38:16;3.38;;;1.80;;
40489;SDS011;26196;52.302;10.572;2023-05-07T09:42:24;2.40;;;1.65;;
40489;SDS011;26196;52.302;10.572;2023-05-07T09:46:29;2.30;;;1.60;;
40489;SDS011;26196;52.302;10.572;2023-05-07T09:50:49;3.53;;;1.42;;
40489;SDS011;26196;52.302;10.572;2023-05-07T09:54:54;2.30;;;1.73;;
40489;SDS011;26196;52.302;10.572;2023-05-07T09:58:55;1.80;;;1.55;;
40489;SDS011;26196;52.302;10.572;2023-05-07T10:02:59;3.10;;;1.85;;
40489;SDS011;26196;52.302;10.572;2023-05-07T10:07:01;3.42;;;1.33;;
40489;SDS011;26196;52.302;10.572;2023-05-07T10:11:04;2.72;;;1.20;;
40489;SDS011;26196;52.302;10.572;2023-05-07T10:15:06;3.42;;;1.58;;
40489;SDS011;26196;52.302;10.572;2023-05-07T10:19:08;3.72;;;1.70;;
40489;SDS011;26196;52.302;10.572;2023-05-07T10:23:13;1.58;;;1.27;;
40489;SDS011;26196;52.302;10.572;2023-05-07T10:27:14;2.22;;;1.58;;
40489;SDS011;26196;52.302;10.572;2023-05-07T10:35:37;1.85;;;1.48;;
40489;SDS011;26196;52.302;10.572;2023-05-07T10:39:40;2.40;;;1.60;;
40489;SDS011;26196;52.302;10.572;2023-05-07T10:43:42;1.70;;;0.95;;
40489;SDS011;26196;52.302;10.572;2023-05-07T11:04:23;1.92;;;1.20;;
40489;SDS011;26196;52.302;10.572;2023-05-07T11:08:26;1.42;;;1.10;;
40489;SDS011;26196;52.302;10.572;2023-05-07T11:12:52;1.65;;;1.30;;
40489;SDS011;26196;52.302;10.572;2023-05-07T11:16:54;1.33;;;1.15;;
40489;SDS011;26196;52.302;10.572;2023-05-07T11:21:02;1.55;;;1.02;;
40489;SDS011;26196;52.302;10.572;2023-05-07T11:25:04;1.45;;;1.17;;
40489;SDS011;26196;52.302;10.572;2023-05-07T11:29:10;1.52;;;0.88;;
40489;SDS011;26196;52.302;10.572;2023-05-07T11:33:11;1.47;;;1.30;;
40489;SDS011;26196;52.302;10.572;2023-05-07T11:37:16;2.40;;;1.52;;
40489;SDS011;26196;52.302;10.572;2023-05-07T11:41:17;11.23;;;5.80;;
40489;SDS011;26196;52.302;10.572;2023-05-07T11:45:23;6.75;;;3.58;;
40489;SDS011;26196;52.302;10.572;2023-05-07T11:49:27;3.92;;;2.38;;
40489;SDS011;26196;52.302;10.572;2023-05-07T11:53:31;7.25;;;3.13;;
40489;SDS011;26196;52.302;10.572;2023-05-07T11:57:36;2.70;;;2.15;;
40489;SDS011;26196;52.302;10.572;2023-05-07T12:01:36;3.42;;;2.00;;
40489;SDS011;26196;52.302;10.572;2023-05-07T12:05:37;2.15;;;1.45;;
40489;SDS011;26196;52.302;10.572;2023-05-07T12:09:42;2.15;;;1.58;;
40489;SDS011;26196;52.302;10.572;2023-05-07T12:13:43;1.92;;;1.70;;
40489;SDS011;26196;52.302;10.572;2023-05-07T12:17:44;3.45;;;1.90;;
40489;SDS011;26196;52.302;10.572;2023-05-07T12:21:45;3.13;;;2.05;;
40489;SDS011;26196;52.302;10.572;2023-05-07T12:25:45;2.67;;;2.05;;
40489;SDS011;26196;52.302;10.572;2023-05-07T12:29:49;4.70;;;2.40;;
40489;SDS011;26196;52.302;10.572;2023-05-07T12:33:50;2.17;;;1.20;;
40489;SDS011;26196;52.302;10.572;2023-05-07T12:37:54;2.25;;;1.70;;
40489;SDS011;26196;52.302;10.572;2023-05-07T12:41:56;3.08;;;1.45;;
40489;SDS011;26196;52.302;10.572;2023-05-07T12:46:03;3.67;;;1.55;;
40489;SDS011;26196;52.302;10.572;2023-05-07T12:50:06;2.40;;;2.00;;
40489;SDS011;26196;52.302;10.572;2023-05-07T12:54:06;2.00;;;1.30;;
40489;SDS011;26196;52.302;10.572;2023-05-07T12:58:07;1.20;;;1.05;;
40489;SDS011;26196;52.302;10.572;2023-05-07T13:02:08;3.65;;;1.92;;
40489;SDS011;26196;52.302;10.572;2023-05-07T13:06:09;1.58;;;1.10;;
40489;SDS011;26196;52.302;10.572;2023-05-07T13:10:10;1.27;;;1.10;;
40489;SDS011;26196;52.302;10.572;2023-05-07T13:14:10;4.47;;;1.73;;
40489;SDS011;26196;52.302;10.572;2023-05-07T13:18:10;3.35;;;1.70;;
40489;SDS011;26196;52.302;10.572;2023-05-07T13:22:11;3.60;;;1.42;;
40489;SDS011;26196;52.302;10.572;2023-05-07T13:26:11;2.80;;;1.67;;
40489;SDS011;26196;52.302;10.572;2023-05-07T13:30:12;1.80;;;1.13;;
40489;SDS011;26196;52.302;10.572;2023-05-07T13:34:12;3.00;;;1.50;;
40489;SDS011;26196;52.302;10.572;2023-05-07T13:38:12;2.25;;;1.38;;
40489;SDS011;26196;52.302;10.572;2023-05-07T13:42:13;3.53;;;1.42;;
40489;SDS011;26196;52.302;10.572;2023-05-07T13:46:13;3.05;;;1.13;;
40489;SDS011;26196;52.302;10.572;2023-05-07T13:50:14;1.08;;;0.77;;
40489;SDS011;26196;52.302;10.572;2023-05-07T13:54:15;1.05;;;0.95;;
40489;SDS011;26196;52.302;10.572;2023-05-07T13:58:15;2.13;;;1.48;;
40489;SDS011;26196;52.302;10.572;2023-05-07T14:02:16;1.15;;;0.90;;
40489;SDS011;26196;52.302;10.572;2023-05-07T14:06:16;2.08;;;1.42;;
40489;SDS011;26196;52.302;10.572;2023-05-07T14:10:17;2.67;;;1.85;;
40489;SDS011;26196;52.302;10.572;2023-05-07T14:14:18;3.83;;;1.40;;
40489;SDS011;26196;52.302;10.572;2023-05-07T14:18:19;6.10;;;2.50;;
40489;SDS011;26196;52.302;10.572;2023-05-07T14:22:19;8.00;;;2.13;;
40489;SDS011;26196;52.302;10.572;2023-05-07T14:26:21;4.50;;;1.98;;
40489;SDS011;26196;52.302;10.572;2023-05-07T14:30:23;3.05;;;1.70;;
40489;SDS011;26196;52.302;10.572;2023-05-07T14:34:24;4.00;;;2.35;;
40489;SDS011;26196;52.302;10.572;2023-05-07T14:38:24;1.60;;;1.43;;
40489;SDS011;26196;52.302;10.572;2023-05-07T14:42:25;3.42;;;1.65;;
40489;SDS011;26196;52.302;10.572;2023-05-07T14:46:25;2.38;;;2.03;;
40489;SDS011;26196;52.302;10.572;2023-05-07T14:50:26;2.13;;;1.70;;
40489;SDS011;26196;52.302;10.572;2023-05-07T14:54:26;6.28;;;2.30;;
40489;SDS011;26196;52.302;10.572;2023-05-07T14:58:26;5.50;;;3.78;;
40489;SDS011;26196;52.302;10.572;2023-05-07T15:02:27;3.42;;;3.10;;
40489;SDS011;26196;52.302;10.572;2023-05-07T15:06:27;4.25;;;3.50;;
40489;SDS011;26196;52.302;10.572;2023-05-07T15:10:28;4.80;;;2.90;;
40489;SDS011;26196;52.302;10.572;2023-05-07T15:14:28;5.20;;;3.50;;
40489;SDS011;26196;52.302;10.572;2023-05-07T15:18:28;3.83;;;2.80;;
40489;SDS011;26196;52.302;10.572;2023-05-07T15:22:29;2.57;;;2.33;;
40489;SDS011;26196;52.302;10.572;2023-05-07T15:26:29;2.03;;;1.83;;
40489;SDS011;26196;52.302;10.572;2023-05-07T15:30:30;2.38;;;1.80;;
40489;SDS011;26196;52.302;10.572;2023-05-07T15:34:30;3.28;;;2.03;;
40489;SDS011;26196;52.302;10.572;2023-05-07T15:38:31;1.77;;;1.40;;
40489;SDS011;26196;52.302;10.572;2023-05-07T15:42:32;2.00;;;1.47;;
40489;SDS011;26196;52.302;10.572;2023-05-07T15:46:33;2.55;;;1.40;;
40489;SDS011;26196;52.302;10.572;2023-05-07T15:50:33;1.85;;;1.33;;
40489;SDS011;26196;52.302;10.572;2023-05-07T15:54:33;3.08;;;1.50;;
40489;SDS011;26196;52.302;10.572;2023-05-07T15:58:34;2.10;;;1.50;;
40489;SDS011;26196;52.302;10.572;2023-05-07T16:02:35;3.35;;;2.05;;
40489;SDS011;26196;52.302;10.572;2023-05-07T16:06:36;2.60;;;2.33;;
40489;SDS011;26196;52.302;10.572;2023-05-07T16:10:36;2.53;;;1.80;;
40489;SDS011;26196;52.302;10.572;2023-05-07T16:14:37;2.65;;;1.83;;
40489;SDS011;26196;52.302;10.572;2023-05-07T16:18:37;1.88;;;1.75;;
40489;SDS011;26196;52.302;10.572;2023-05-07T16:22:38;2.00;;;1.80;;
40489;SDS011;26196;52.302;10.572;2023-05-07T16:26:38;2.03;;;1.83;;
40489;SDS011;26196;52.302;10.572;2023-05-07T16:30:38;2.03;;;1.83;;
40489;SDS011;26196;52.302;10.572;2023-05-07T16:34:39;2.35;;;2.03;;
40489;SDS011;26196;52.302;10.572;2023-05-07T16:38:39;2.90;;;2.70;;
40489;SDS011;26196;52.302;10.572;2023-05-07T16:42:40;3.33;;;2.42;;
40489;SDS011;26196;52.302;10.572;2023-05-07T16:46:40;5.00;;;3.55;;
40489;SDS011;26196;52.302;10.572;2023-05-07T16:50:41;10.95;;;5.32;;
40489;SDS011;26196;52.302;10.572;2023-05-07T16:54:43;10.25;;;6.63;;
40489;SDS011;26196;52.302;10.572;2023-05-07T16:58:43;11.02;;;6.25;;
40489;SDS011;26196;52.302;10.572;2023-05-07T17:02:44;12.98;;;7.47;;
40489;SDS011;26196;52.302;10.572;2023-05-07T17:06:45;9.93;;;4.80;;
40489;SDS011;26196;52.302;10.572;2023-05-07T17:10:46;7.18;;;3.42;;
40489;SDS011;26196;52.302;10.572;2023-05-07T17:14:46;7.93;;;3.70;;
40489;SDS011;26196;52.302;10.572;2023-05-07T17:18:46;7.75;;;4.25;;
40489;SDS011;26196;52.302;10.572;2023-05-07T17:22:47;3.40;;;2.87;;
40489;SDS011;26196;52.302;10.572;2023-05-07T17:26:47;5.70;;;3.20;;
40489;SDS011;26196;52.302;10.572;2023-05-07T17:30:47;4.88;;;3.35;;
40489;SDS011;26196;52.302;10.572;2023-05-07T17:34:48;7.22;;;4.07;;
40489;SDS011;26196;52.302;10.572;2023-05-07T17:38:49;8.35;;;4.32;;
40489;SDS011;26196;52.302;10.572;2023-05-07T17:42:49;13.97;;;4.87;;
40489;SDS011;26196;52.302;10.572;2023-05-07T17:46:50;11.30;;;4.47;;
40489;SDS011;26196;52.302;10.572;2023-05-07T17:50:50;9.38;;;3.95;;
40489;SDS011;26196;52.302;10.572;2023-05-07T17:54:51;11.55;;;4.28;;
40489;SDS011;26196;52.302;10.572;2023-05-07T17:58:51;11.40;;;4.30;;
40489;SDS011;26196;52.302;10.572;2023-05-07T18:02:53;9.50;;;3.55;;
40489;SDS011;26196;52.302;10.572;2023-05-07T18:06:53;10.45;;;4.25;;
40489;SDS011;26196;52.302;10.572;2023-05-07T18:10:54;6.45;;;3.80;;
40489;SDS011;26196;52.302;10.572;2023-05-07T18:14:54;7.82;;;4.15;;
40489;SDS011;26196;52.302;10.572;2023-05-07T18:18:55;6.45;;;3.83;;
40489;SDS011;26196;52.302;10.572;2023-05-07T18:22:55;8.73;;;3.40;;
40489;SDS011;26196;52.302;10.572;2023-05-07T18:26:55;6.28;;;3.38;;
40489;SDS011;26196;52.302;10.572;2023-05-07T18:30:56;7.38;;;3.95;;
40489;SDS011;26196;52.302;10.572;2023-05-07T18:34:56;7.60;;;3.72;;
40489;SDS011;26196;52.302;10.572;2023-05-07T18:38:57;7.32;;;3.70;;
40489;SDS011;26196;52.302;10.572;2023-05-07T18:42:57;4.18;;;2.65;;
40489;SDS011;26196;52.302;10.572;2023-05-07T18:46:57;3.75;;;2.30;;
40489;SDS011;26196;52.302;10.572;2023-05-07T18:50:58;3.50;;;3.10;;
40489;SDS011;26196;52.302;10.572;2023-05-07T18:54:58;4.75;;;3.05;;
40489;SDS011;26196;52.302;10.572;2023-05-07T18:58:58;4.40;;;2.75;;
40489;SDS011;26196;52.302;10.572;2023-05-07T19:02:59;4.40;;;2.80;;
40489;SDS011;26196;52.302;10.572;2023-05-07T19:06:59;5.68;;;2.83;;
40489;SDS011;26196;52.302;10.572;2023-05-07T19:11:00;5.38;;;3.13;;
40489;SDS011;26196;52.302;10.572;2023-05-07T19:15:01;9.63;;;3.45;;
40489;SDS011;26196;52.302;10.572;2023-05-07T19:19:01;4.95;;;2.60;;
40489;SDS011;26196;52.302;10.572;2023-05-07T19:23:02;6.95;;;3.03;;
40489;SDS011;26196;52.302;10.572;2023-05-07T19:27:02;6.60;;;2.53;;
40489;SDS011;26196;52.302;10.572;2023-05-07T19:31:03;6.30;;;3.40;;
40489;SDS011;26196;52.302;10.572;2023-05-07T19:35:04;4.85;;;2.28;;
40489;SDS011;26196;52.302;10.572;2023-05-07T19:39:05;4.30;;;2.00;;
40489;SDS011;26196;52.302;10.572;2023-05-07T19:43:06;3.63;;;2.22;;
40489;SDS011;26196;52.302;10.572;2023-05-07T19:47:06;7.30;;;2.50;;
40489;SDS011;26196;52.302;10.572;2023-05-07T19:51:06;4.53;;;1.70;;
40489;SDS011;26196;52.302;10.572;2023-05-07T19:55:07;7.20;;;1.80;;
40489;SDS011;26196;52.302;10.572;2023-05-07T19:59:07;3.25;;;1.90;;
40489;SDS011;26196;52.302;10.572;2023-05-07T20:03:08;4.47;;;1.85;;
40489;SDS011;26196;52.302;10.572;2023-05-07T20:07:13;2.83;;;2.30;;
40489;SDS011;26196;52.302;10.572;2023-05-07T20:11:13;4.57;;;2.10;;
40489;SDS011;26196;52.302;10.572;2023-05-07T20:15:14;4.32;;;2.67;;
40489;SDS011;26196;52.302;10.572;2023-05-07T20:19:15;9.10;;;2.63;;
40489;SDS011;26196;52.302;10.572;2023-05-07T20:23:16;3.85;;;2.40;;
40489;SDS011;26196;52.302;10.572;2023-05-07T20:27:17;3.23;;;2.10;;
40489;SDS011;26196;52.302;10.572;2023-05-07T20:31:21;3.88;;;2.47;;
40489;SDS011;26196;52.302;10.572;2023-05-07T20:35:21;5.68;;;2.85;;
40489;SDS011;26196;52.302;10.572;2023-05-07T20:39:23;2.90;;;2.00;;
40489;SDS011;26196;52.302;10.572;2023-05-07T20:43:23;5.95;;;2.40;;
40489;SDS011;26196;52.302;10.572;2023-05-07T20:47:23;3.80;;;2.50;;
40489;SDS011;26196;52.302;10.572;2023-05-07T20:51:24;3.40;;;2.40;;
40489;SDS011;26196;52.302;10.572;2023-05-07T20:55:24;3.10;;;2.45;;
40489;SDS011;26196;52.302;10.572;2023-05-07T20:59:24;4.05;;;2.20;;
40489;SDS011;26196;52.302;10.572;2023-05-07T21:03:25;2.88;;;2.00;;
40489;SDS011;26196;52.302;10.572;2023-05-07T21:07:26;3.00;;;2.58;;
40489;SDS011;26196;52.302;10.572;2023-05-07T21:11:26;3.20;;;2.30;;
40489;SDS011;26196;52.302;10.572;2023-05-07T21:15:26;4.10;;;2.55;;
40489;SDS011;26196;52.302;10.572;2023-05-07T21:19:27;2.53;;;2.07;;
40489;SDS011;26196;52.302;10.572;2023-05-07T21:23:27;3.03;;;2.28;;
40489;SDS011;26196;52.302;10.572;2023-05-07T21:27:28;2.97;;;2.30;;
40489;SDS011;26196;52.302;10.572;2023-05-07T21:31:28;3.20;;;2.13;;
40489;SDS011;26196;52.302;10.572;2023-05-07T21:35:28;3.47;;;2.30;;
40489;SDS011;26196;52.302;10.572;2023-05-07T21:39:29;2.95;;;2.42;;
40489;SDS011;26196;52.302;10.572;2023-05-07T21:43:29;2.80;;;2.45;;
40489;SDS011;26196;52.302;10.572;2023-05-07T21:47:30;2.85;;;2.17;;
40489;SDS011;26196;52.302;10.572;2023-05-07T21:51:31;3.70;;;2.58;;
40489;SDS011;26196;52.302;10.572;2023-05-07T21:55:33;3.83;;;3.03;;
40489;SDS011;26196;52.302;10.572;2023-05-07T21:59:33;2.50;;;2.30;;
40489;SDS011;26196;52.302;10.572;2023-05-07T22:03:34;3.45;;;2.17;;
40489;SDS011;26196;52.302;10.572;2023-05-07T22:07:34;2.65;;;2.30;;
40489;SDS011;26196;52.302;10.572;2023-05-07T22:11:35;3.27;;;2.60;;
40489;SDS011;26196;52.302;10.572;2023-05-07T22:15:35;2.17;;;1.97;;
40489;SDS011;26196;52.302;10.572;2023-05-07T22:19:35;2.45;;;2.25;;
40489;SDS011;26196;52.302;10.572;2023-05-07T22:23:36;2.63;;;2.27;;
40489;SDS011;26196;52.302;10.572;2023-05-07T22:27:36;2.50;;;2.20;;
40489;SDS011;26196;52.302;10.572;2023-05-07T22:31:36;3.33;;;2.30;;
40489;SDS011;26196;52.302;10.572;2023-05-07T22:35:36;2.13;;;1.93;;
40489;SDS011;26196;52.302;10.572;2023-05-07T22:39:37;2.77;;;2.47;;
40489;SDS011;26196;52.302;10.572;2023-05-07T22:43:37;2.47;;;2.28;;
40489;SDS011;26196;52.302;10.572;2023-05-07T22:47:38;3.78;;;2.05;;
40489;SDS011;26196;52.302;10.572;2023-05-07T22:51:38;2.80;;;2.20;;
40489;SDS011;26196;52.302;10.572;2023-05-07T22:55:39;2.20;;;2.00;;
40489;SDS011;26196;52.302;10.572;2023-05-07T22:59:39;3.10;;;2.30;;
40489;SDS011;26196;52.302;10.572;2023-05-07T23:03:39;1.97;;;1.77;;
40489;SDS011;26196;52.302;10.572;2023-05-07T23:07:40;3.03;;;2.72;;
40489;SDS011;26196;52.302;10.572;2023-05-07T23:11:40;2.10;;;1.90;;
40489;SDS011;26196;52.302;10.572;2023-05-07T23:15:42;2.55;;;2.08;;
40489;SDS011;26196;52.302;10.572;2023-05-07T23:19:42;2.40;;;2.20;;
40489;SDS011;26196;52.302;10.572;2023-05-07T23:23:43;2.72;;;2.42;;
40489;SDS011;26196;52.302;10.572;2023-05-07T23:27:43;4.63;;;1.90;;
40489;SDS011;26196;52.302;10.572;2023-05-07T23:31:43;2.65;;;1.90;;
40489;SDS011;26196;52.302;10.572;2023-05-07T23:35:44;2.22;;;2.00;;
40489;SDS011;26196;52.302;10.572;2023-05-07T23:39:44;2.90;;;2.60;;
40489;SDS011;26196;52.302;10.572;2023-05-07T23:43:44;2.40;;;2.20;;
40489;SDS011;26196;52.302;10.572;2023-05-07T23:47:45;2.40;;;2.10;;
40489;SDS011;26196;52.302;10.572;2023-05-07T23:51:45;2.60;;;2.40;;
40489;SDS011;26196;52.302;10.572;2023-05-07T23:55:45;2.85;;;2.40;;
40489;SDS011;26196;52.302;10.572;2023-05-07T23:59:46;2.92;;;2.33;;
